| time (UTC) | temp C | wind direction | speed KPH | gust KPH | rain 1hr cm | rain 24hr cm | rain mn cm | humidity % | barometer mb |
| 20260507052516 | 12 | 0.0 | 1.6 | 0.00 | 0.00 | 0.00 | 94 | 1019.7 | |
| 20260507051516 | 11 | 0.0 | 0.0 | 0.00 | 0.00 | 0.00 | 94 | 1019.8 | |
| 20260507050556 | 11 | 0.0 | 0.0 | 0.00 | 0.00 | 0.00 | 94 | 1019.7 | |
| 20260507045515 | 11 | 0.0 | 0.0 | 0.00 | 0.00 | 0.00 | 93 | 1019.7 | |
| 20260507044516 | 11 | 0.0 | 0.0 | 0.00 | 0.00 | 0.00 | 92 | 1019.8 | |
| 20260507043557 | 11 | 0.0 | 0.0 | 0.00 | 0.00 | 0.00 | 92 | 1019.7 | |
| 20260507042517 | 11 | 0.0 | 0.0 | 0.00 | 0.00 | 0.00 | 92 | 1019.7 | |
| 20260507041535 | 11 | 0.0 | 0.0 | 0.00 | 0.00 | 0.00 | 91 | 1019.5 | |
| 20260507040516 | 12 | 0.0 | 0.0 | 0.00 | 0.00 | 0.00 | 90 | 1019.5 | |
| 20260507035516 | 12 | 0.0 | 0.0 | 0.00 | 0.00 | 0.00 | 89 | 1019.4 | |
| 20260507034516 | 12 | 0.0 | 0.0 | 0.00 | 0.00 | 0.00 | 87 | 1019.5 | |
| 20260507033628 | 12 | 0.0 | 0.0 | 0.00 | 0.00 | 0.00 | 87 | 1019.4 | |
| 20260507032515 | 13 | 0.0 | 0.0 | 0.00 | 0.00 | 0.00 | 85 | 1019.3 | |
| 20260507031520 | 13 | 0.0 | 0.0 | 0.00 | 0.00 | 0.00 | 83 | 1019.4 | |
| 20260507030515 | 14 | 0.0 | 0.0 | 0.00 | 0.00 | 0.00 | 81 | 1019.3 | |
| 20260507025515 | 15 | 0.0 | 1.6 | 0.00 | 0.00 | 0.00 | 79 | 1019.4 | |
| 20260507024528 | 16 | 0.0 | 1.6 | 0.00 | 0.00 | 0.00 | 76 | 1019.3 | |
| 20260507023516 | 16 | 0.0 | 1.6 | 0.00 | 0.00 | 0.00 | 75 | 1019.3 | |
| 20260507022535 | 16 | 0.0 | 1.6 | 0.00 | 0.00 | 0.00 | 73 | 1019.5 | |
| 20260507021515 | 17 | 0.0 | 3.2 | 0.00 | 0.00 | 0.00 | 72 | 1019.5 | |
| 20260507020515 | 17 | 0 | 1.6 | 4.8 | 0.00 | 0.00 | 0.00 | 71 | 1019.5 |
| 20260507015515 | 18 | 0 | 1.6 | 3.2 | 0.00 | 0.00 | 0.00 | 69 | 1019.7 |
| 20260507014515 | 18 | 0 | 1.6 | 3.2 | 0.00 | 0.00 | 0.00 | 69 | 1019.7 |
| 20260507013516 | 18 | 0.0 | 4.8 | 0.00 | 0.00 | 0.00 | 69 | 1019.8 | |
| 20260507012515 | 18 | 0.0 | 1.6 | 0.00 | 0.00 | 0.00 | 68 | 1019.8 | |
| 20260507011516 | 18 | 0.0 | 4.8 | 0.00 | 0.00 | 0.00 | 68 | 1019.7 | |
| 20260507010556 | 18 | 338 | 3.2 | 6.4 | 0.00 | 0.00 | 0.00 | 67 | 1019.7 |
| 20260507005515 | 18 | 0 | 4.8 | 9.7 | 0.00 | 0.00 | 0.00 | 67 | 1019.8 |
| 20260507004515 | 18 | 0 | 3.2 | 11.3 | 0.00 | 0.00 | 0.00 | 67 | 1019.9 |
| 20260507003515 | 18 | 23 | 3.2 | 9.7 | 0.00 | 0.00 | 0.00 | 67 | 1019.9 |
| 20260507002515 | 18 | 338 | 1.6 | 9.7 | 0.00 | 0.00 | 0.00 | 67 | 1019.9 |
| 20260507001515 | 18 | 45 | 3.2 | 8.0 | 0.00 | 0.00 | 0.00 | 66 | 1019.9 |
| 20260507000536 | 18 | 338 | 3.2 | 9.7 | 0.00 | 0.00 | 0.00 | 66 | 1020.0 |
| 20260506235515 | 19 | 45 | 3.2 | 12.9 | 0.00 | 0.00 | 0.00 | 66 | 1020.0 |
| 20260506234515 | 18 | 338 | 3.2 | 8.0 | 0.00 | 0.00 | 0.00 | 66 | 1020.0 |
| 20260506233535 | 19 | 0 | 3.2 | 9.7 | 0.00 | 0.00 | 0.00 | 65 | 1020.0 |
| 20260506232535 | 20 | 0 | 4.8 | 11.3 | 0.00 | 0.00 | 0.00 | 64 | 1020.2 |
| 20260506231535 | 20 | 0 | 3.2 | 6.4 | 0.00 | 0.00 | 0.00 | 63 | 1020.3 |
| 20260506230515 | 20 | 23 | 1.6 | 9.7 | 0.00 | 0.00 | 0.00 | 64 | 1020.4 |
| 20260506225515 | 19 | 0 | 1.6 | 8.0 | 0.00 | 0.00 | 0.00 | 65 | 1020.4 |
| 20260506224536 | 18 | 23 | 3.2 | 9.7 | 0.00 | 0.00 | 0.00 | 65 | 1020.4 |
| 20260506223537 | 18 | 0 | 4.8 | 9.7 | 0.00 | 0.00 | 0.00 | 65 | 1020.6 |
| 20260506222537 | 18 | 0 | 4.8 | 8.0 | 0.00 | 0.00 | 0.00 | 65 | 1020.6 |
| 20260506221517 | 18 | 338 | 3.2 | 8.0 | 0.00 | 0.00 | 0.00 | 66 | 1020.5 |
| 20260506220517 | 18 | 338 | 1.6 | 6.4 | 0.00 | 0.00 | 0.00 | 66 | 1020.6 |
| 20260506215549 | 17 | 0 | 3.2 | 9.7 | 0.00 | 0.00 | 0.00 | 68 | 1020.8 |
| 20260506215017 | 17 | 23 | 4.8 | 11.3 | 0.00 | 0.00 | 0.00 | 68 | 1020.8 |
| 20260506214017 | 17 | 0 | 3.2 | 11.3 | 0.00 | 0.00 | 0.00 | 68 | 1021.0 |
| 20260506213017 | 17 | 293 | 1.6 | 6.4 | 0.00 | 0.00 | 0.00 | 70 | 1021.0 |
| 20260506212017 | 17 | 338 | 3.2 | 8.0 | 0.00 | 0.00 | 0.00 | 69 | 1021.0 |
| 20260506211017 | 17 | 90 | 3.2 | 9.7 | 0.00 | 0.00 | 0.00 | 69 | 1021.3 |
| 20260506210017 | 17 | 68 | 1.6 | 11.3 | 0.00 | 0.00 | 0.00 | 69 | 1021.3 |
| 20260506205017 | 17 | 23 | 4.8 | 12.9 | 0.00 | 0.00 | 0.00 | 71 | 1021.3 |
| 20260506204137 | 17 | 23 | 3.2 | 11.3 | 0.00 | 0.00 | 0.00 | 71 | 1021.2 |
| 20260506203018 | 16 | 23 | 3.2 | 8.0 | 0.00 | 0.00 | 0.00 | 71 | 1021.4 |
| 20260506202037 | 16 | 0 | 4.8 | 9.7 | 0.00 | 0.00 | 0.00 | 72 | 1021.5 |
| 20260506201017 | 16 | 45 | 3.2 | 11.3 | 0.00 | 0.00 | 0.00 | 71 | 1021.5 |
| 20260506200017 | 16 | 0 | 3.2 | 8.0 | 0.00 | 0.00 | 0.00 | 72 | 1021.5 |
| 20260506195017 | 15 | 338 | 1.6 | 6.4 | 0.00 | 0.00 | 0.00 | 74 | 1021.5 |
| 20260506194035 | 16 | 315 | 3.2 | 8.0 | 0.00 | 0.00 | 0.00 | 74 | 1021.7 |
| 20260506193517 | 15 | 23 | 1.6 | 8.0 | 0.00 | 0.00 | 0.00 | 75 | 1021.5 |
| 20260506192517 | 15 | 45 | 3.2 | 9.7 | 0.00 | 0.00 | 0.00 | 75 | 1021.5 |
| 20260506191537 | 15 | 23 | 1.6 | 6.4 | 0.00 | 0.00 | 0.00 | 76 | 1021.6 |
| 20260506190517 | 15 | 0 | 3.2 | 9.7 | 0.00 | 0.00 | 0.00 | 78 | 1021.7 |
| 20260506185517 | 15 | 23 | 4.8 | 9.7 | 0.00 | 0.00 | 0.00 | 77 | 1021.7 |
| 20260506184516 | 14 | 23 | 1.6 | 8.0 | 0.00 | 0.00 | 0.00 | 81 | 1021.6 |
| 20260506183517 | 13 | 0 | 3.2 | 9.7 | 0.00 | 0.00 | 0.00 | 80 | 1021.6 |
| 20260506182517 | 13 | 0 | 1.6 | 6.4 | 0.00 | 0.00 | 0.00 | 82 | 1021.6 |
| 20260506181537 | 13 | 315 | 1.6 | 6.4 | 0.00 | 0.00 | 0.00 | 84 | 1021.7 |
| 20260506180516 | 13 | 0 | 3.2 | 8.0 | 0.00 | 0.00 | 0.00 | 84 | 1021.6 |
| 20260506175517 | 12 | 0.0 | 3.2 | 0.00 | 0.00 | 0.00 | 90 | 1021.5 | |
| 20260506174517 | 11 | 293 | 1.6 | 4.8 | 0.00 | 0.00 | 0.00 | 93 | 1021.3 |
| 20260506173517 | 10 | 0.0 | 4.8 | 0.00 | 0.00 | 0.00 | 93 | 1021.1 | |
| 20260506172517 | 10 | 270 | 3.2 | 9.7 | 0.00 | 0.00 | 0.00 | 94 | 1021.1 |
| 20260506171516 | 10 | 270 | 3.2 | 8.0 | 0.00 | 0.00 | 0.00 | 94 | 1021.1 |
| 20260506170516 | 10 | 0.0 | 3.2 | 0.00 | 0.00 | 0.00 | 95 | 1021.2 | |
| 20260506165536 | 10 | 315 | 1.6 | 6.4 | 0.00 | 0.00 | 0.00 | 95 | 1021.1 |
| 20260506164516 | 10 | 0.0 | 4.8 | 0.00 | 0.00 | 0.00 | 96 | 1021.1 | |
| 20260506163516 | 10 | 0.0 | 1.6 | 0.00 | 0.00 | 0.00 | 96 | 1021.1 | |
| 20260506162516 | 10 | 0.0 | 0.0 | 0.00 | 0.00 | 0.00 | 96 | 1021.1 | |
| 20260506161535 | 10 | 0.0 | 0.0 | 0.00 | 0.00 | 0.00 | 96 | 1021.0 | |
| 20260506160517 | 9 | 0.0 | 4.8 | 0.00 | 0.00 | 0.00 | 96 | 1020.8 | |
| 20260506155517 | 9 | 0.0 | 3.2 | 0.00 | 0.00 | 0.00 | 96 | 1020.9 | |
| 20260506154516 | 9 | 0.0 | 3.2 | 0.00 | 0.00 | 0.00 | 96 | 1021.0 | |
| 20260506153516 | 9 | 0.0 | 4.8 | 0.00 | 0.00 | 0.00 | 96 | 1021.0 | |
| 20260506152537 | 9 | 0.0 | 0.0 | 0.00 | 0.00 | 0.00 | 96 | 1020.9 | |
| 20260506151516 | 9 | 0.0 | 1.6 | 0.00 | 0.00 | 0.00 | 96 | 1021.0 | |
| 20260506150517 | 9 | 0.0 | 4.8 | 0.00 | 0.00 | 0.00 | 96 | 1021.0 | |
| 20260506145516 | 9 | 0.0 | 3.2 | 0.00 | 0.00 | 0.00 | 96 | 1021.0 | |
| 20260506144516 | 9 | 0.0 | 1.6 | 0.00 | 0.00 | 0.00 | 96 | 1021.0 | |
| 20260506143516 | 9 | 0.0 | 0.0 | 0.00 | 0.00 | 0.00 | 96 | 1020.9 | |
| 20260506142516 | 8 | 0.0 | 1.6 | 0.00 | 0.00 | 0.00 | 96 | 1020.8 | |
| 20260506141516 | 8 | 0.0 | 1.6 | 0.00 | 0.00 | 0.00 | 95 | 1020.7 | |
| 20260506140516 | 8 | 0.0 | 3.2 | 0.00 | 0.00 | 0.00 | 96 | 1020.7 | |
| 20260506135516 | 8 | 0.0 | 0.0 | 0.00 | 0.00 | 0.00 | 95 | 1020.4 | |
| 20260506134516 | 8 | 0.0 | 0.0 | 0.00 | 0.00 | 0.00 | 95 | 1020.2 | |
| 20260506133536 | 8 | 0.0 | 1.6 | 0.00 | 0.00 | 0.00 | 95 | 1020.2 | |
| 20260506132517 | 8 | 0.0 | 1.6 | 0.00 | 0.00 | 0.00 | 95 | 1020.0 | |
| 20260506131637 | 8 | 0.0 | 0.0 | 0.00 | 0.00 | 0.00 | 95 | 1020.0 | |
| 20260506130516 | 8 | 0.0 | 0.0 | 0.00 | 0.00 | 0.00 | 95 | 1020.1 | |
| 20260506125556 | 8 | 0.0 | 3.2 | 0.00 | 0.00 | 0.00 | 95 | 1020.0 | |
| 20260506124516 | 8 | 0.0 | 0.0 | 0.00 | 0.00 | 0.00 | 95 | 1020.0 | |
| 20260506123516 | 8 | 0.0 | 0.0 | 0.00 | 0.00 | 0.00 | 95 | 1019.7 | |
| 20260506122516 | 8 | 0.0 | 0.0 | 0.00 | 0.00 | 0.00 | 95 | 1019.8 | |
| 20260506121516 | 8 | 0.0 | 0.0 | 0.00 | 0.00 | 0.00 | 95 | 1019.7 | |
| 20260506120637 | 8 | 0.0 | 0.0 | 0.00 | 0.00 | 0.00 | 95 | 1019.5 | |
| 20260506115536 | 8 | 0.0 | 0.0 | 0.00 | 0.00 | 0.00 | 95 | 1019.5 | |
| 20260506114516 | 8 | 0.0 | 0.0 | 0.00 | 0.00 | 0.00 | 95 | 1019.5 | |
| 20260506113516 | 8 | 0.0 | 0.0 | 0.00 | 0.00 | 0.00 | 95 | 1019.5 | |
| 20260506112537 | 8 | 0.0 | 0.0 | 0.00 | 0.00 | 0.00 | 95 | 1019.4 | |
| 20260506111516 | 8 | 0.0 | 0.0 | 0.00 | 0.00 | 0.00 | 95 | 1019.5 | |
| 20260506110516 | 8 | 0.0 | 0.0 | 0.00 | 0.00 | 0.00 | 95 | 1019.3 | |
| 20260506105516 | 8 | 0.0 | 0.0 | 0.00 | 0.00 | 0.00 | 95 | 1019.3 | |
| 20260506104517 | 8 | 0.0 | 0.0 | 0.00 | 0.00 | 0.00 | 95 | 1019.2 | |
| 20260506103516 | 8 | 0.0 | 0.0 | 0.00 | 0.00 | 0.00 | 95 | 1019.2 | |
| 20260506102516 | 8 | 0.0 | 0.0 | 0.00 | 0.00 | 0.00 | 95 | 1019.2 | |
| 20260506101536 | 8 | 0.0 | 0.0 | 0.00 | 0.00 | 0.00 | 95 | 1019.3 | |
| 20260506100516 | 8 | 0.0 | 0.0 | 0.00 | 0.00 | 0.00 | 95 | 1019.4 | |
| 20260506095516 | 8 | 0.0 | 0.0 | 0.00 | 0.00 | 0.00 | 95 | 1019.4 | |
| 20260506094516 | 8 | 0.0 | 1.6 | 0.00 | 0.00 | 0.00 | 95 | 1019.4 | |
| 20260506093516 | 8 | 0.0 | 0.0 | 0.00 | 0.00 | 0.00 | 95 | 1019.4 | |
| 20260506092536 | 8 | 0.0 | 0.0 | 0.00 | 0.00 | 0.00 | 95 | 1019.6 | |
| 20260506091516 | 8 | 0.0 | 0.0 | 0.00 | 0.00 | 0.00 | 94 | 1019.4 | |
| 20260506090516 | 8 | 0.0 | 0.0 | 0.00 | 0.00 | 0.00 | 94 | 1019.2 | |
| 20260506085516 | 8 | 0.0 | 1.6 | 0.00 | 0.00 | 0.00 | 94 | 1019.2 | |
| 20260506084515 | 9 | 0.0 | 0.0 | 0.00 | 0.00 | 0.00 | 94 | 1019.2 | |
| 20260506083516 | 9 | 0.0 | 0.0 | 0.00 | 0.00 | 0.00 | 94 | 1019.2 | |
| 20260506082515 | 9 | 0.0 | 0.0 | 0.00 | 0.00 | 0.00 | 94 | 1019.3 | |
| 20260506081516 | 9 | 0.0 | 0.0 | 0.00 | 0.00 | 0.00 | 93 | 1019.4 | |
| 20260506080516 | 9 | 0.0 | 1.6 | 0.00 | 0.00 | 0.00 | 93 | 1019.3 | |
| 20260506073516 | 9 | 0.0 | 0.0 | 0.00 | 0.00 | 0.00 | 93 | 1019.1 | |
| 20260506072516 | 9 | 0.0 | 0.0 | 0.00 | 0.00 | 0.00 | 92 | 1019.1 | |
| 20260506071515 | 9 | 0.0 | 0.0 | 0.00 | 0.00 | 0.00 | 92 | 1018.9 | |
| 20260506070515 | 9 | 0.0 | 1.6 | 0.00 | 0.00 | 0.00 | 92 | 1019.0 | |
| 20260506062516 | 10 | 0.0 | 0.0 | 0.00 | 0.00 | 0.00 | 91 | 1018.7 | |
| 20260506061516 | 10 | 0.0 | 0.0 | 0.00 | 0.00 | 0.00 | 91 | 1018.7 | |
| 20260506060536 | 10 | 0.0 | 0.0 | 0.00 | 0.00 | 0.00 | 91 | 1018.6 |